Angon — CQPQ — position and weather

sailwx.info

Track history (hours):
 
Tides and Currents Weather Stations Pressure Air Temp Water Temp Dewpoint Dewpoint Depression Visibility Wind Speed Wind Dir Waves Ship Positions

Angon

Last reported at 2018-Feb-23 01:25 UTC. Time now 2018-Feb-24 16:37 UTC.
Position N 47°31' W 005°53'.

Length 89 m; draft 5.9 m.

Type: Cargo ship. MMSI: 255802380.

Date/timePositionNaut miles runAvg speedWind from/ knotsBaromVisibWave heightAir tempDewpointWater temp
2018-Feb-23 01:25N 47°31' W 005°53'5 9.9
2018-Feb-23 00:56N 47°35' W 005°49'7 9.9
2018-Feb-23 00:14N 47°41' W 005°42'4 9.9
2018-Feb-22 23:50N 47°44' W 005°39'4 9.9
2018-Feb-22 23:28N 47°47' W 005°36'5 9.8
2018-Feb-22 23:00N 47°50' W 005°32'5 9.6
2018-Feb-22 22:30N 47°54' W 005°27'5 9.4
2018-Feb-22 22:00N 47°58' W 005°23'5 9.3
2018-Feb-22 21:30N 48°02' W 005°19'5 8.9
2018-Feb-22 20:59N 48°05' W 005°14'4 8.7
2018-Feb-22 20:30N 48°07' W 005°09'4 8.2
2018-Feb-22 20:00N 48°09' W 005°04'4 8.4
2018-Feb-22 19:31N 48°12' W 004°59'4 8.8
2018-Feb-22 19:00N 48°14' W 004°53'4 9.0
2018-Feb-22 18:31N 48°16' W 004°47'5 9.1
2018-Feb-22 18:01N 48°18' W 004°41'4 8.9
2018-Feb-22 17:31N 48°20' W 004°35'4 7.6
2018-Feb-22 17:00N 48°22' W 004°30'2 4.7
2018-Feb-22 16:30N 48°23' W 004°27'0 0.0
2018-Feb-22 16:00N 48°23' W 004°27'0 0.0
2018-Feb-22 15:30N 48°23' W 004°27'0 0.0
2018-Feb-22 15:00N 48°23' W 004°27'0 0.0
2018-Feb-22 14:30N 48°23' W 004°27'0 0.0
2018-Feb-22 14:00N 48°23' W 004°27'0 0.0
2018-Feb-22 13:30N 48°23' W 004°27'0 0.0
2018-Feb-22 13:00N 48°23' W 004°27'0 0.0
2018-Feb-22 12:30N 48°23' W 004°27'0 0.0
2018-Feb-22 12:00N 48°23' W 004°27'0 0.0
2018-Feb-22 11:30N 48°23' W 004°27'0 0.0
2018-Feb-22 11:00N 48°23' W 004°27'0 0.0
2018-Feb-22 10:30N 48°23' W 004°27'0 0.0
2018-Feb-22 10:00N 48°23' W 004°27'0 0.0
2018-Feb-22 09:30N 48°23' W 004°27'0 0.0
2018-Feb-22 09:01N 48°23' W 004°27'0 0.0
2018-Feb-22 08:30N 48°23' W 004°27'0 0.0
2018-Feb-22 08:00N 48°23' W 004°27'0 0.0
2018-Feb-22 07:30N 48°23' W 004°27'0 0.0
2018-Feb-22 07:00N 48°23' W 004°27'0 0.0
2018-Feb-22 06:30N 48°23' W 004°27'0 0.0
2018-Feb-22 06:00N 48°23' W 004°27'0 0.0
2018-Feb-22 05:30N 48°23' W 004°27'0 0.0
2018-Feb-22 05:00N 48°23' W 004°27'0 0.0
2018-Feb-22 04:30N 48°23' W 004°27'0 0.0
2018-Feb-22 04:00N 48°23' W 004°27'0 0.0
2018-Feb-22 03:27N 48°23' W 004°27'0 0.0
2018-Feb-22 03:00N 48°23' W 004°27'0 0.0
2018-Feb-22 02:30N 48°23' W 004°27'0 0.0
2018-Feb-22 02:00N 48°23' W 004°27'0 0.0
2018-Feb-22 01:30N 48°23' W 004°27'0 0.0
2018-Feb-22 01:00N 48°23' W 004°27'0 0.0
2018-Feb-22 00:30N 48°23' W 004°27'0 0.0
2018-Feb-22 00:00N 48°23' W 004°27'0 0.0
2018-Feb-21 23:30N 48°23' W 004°27'0 0.0
2018-Feb-21 23:00N 48°23' W 004°27'0 0.0
2018-Feb-21 22:30N 48°23' W 004°27'0 0.0
2018-Feb-21 22:00N 48°23' W 004°27'0 0.0
2018-Feb-21 21:30N 48°23' W 004°27'0 0.0
2018-Feb-21 21:00N 48°23' W 004°27'0 0.0
2018-Feb-21 20:30N 48°23' W 004°27'0 0.0
2018-Feb-21 20:00N 48°23' W 004°27'0 0.0
2018-Feb-21 19:30N 48°23' W 004°27'0 0.0
2018-Feb-21 19:00N 48°23' W 004°27'0 0.0
2018-Feb-21 18:31N 48°23' W 004°27'0 0.0
2018-Feb-21 18:00N 48°23' W 004°27'0 0.0
2018-Feb-21 17:30N 48°23' W 004°27'0 0.0
2018-Feb-21 17:00N 48°23' W 004°27'0 0.0
2018-Feb-21 16:30N 48°23' W 004°27'0 0.0
2018-Feb-21 16:00N 48°23' W 004°27'0 0.0
2018-Feb-21 15:30N 48°23' W 004°27'0 0.0
2018-Feb-21 15:00N 48°23' W 004°27'0 0.0
2018-Feb-21 14:30N 48°23' W 004°27'0 0.0
2018-Feb-21 14:00N 48°23' W 004°27'0 0.0
2018-Feb-21 13:30N 48°23' W 004°27'0 0.0
2018-Feb-21 13:01N 48°23' W 004°27'0 0.0
2018-Feb-21 12:30N 48°23' W 004°27'0 0.0
2018-Feb-21 12:00N 48°23' W 004°27'0 0.0
2018-Feb-21 11:30N 48°23' W 004°27'1 2.3
2018-Feb-21 11:01N 48°22' W 004°28'5 9.3
2018-Feb-21 10:31N 48°20' W 004°34'4 8.9
2018-Feb-21 10:00N 48°18' W 004°41'5 9.3
2018-Feb-21 09:30N 48°16' W 004°47'5 9.6
2018-Feb-21 09:00N 48°14' W 004°53'5 9.7
2018-Feb-21 08:30N 48°11' W 004°59'510.3
2018-Feb-21 08:00N 48°08' W 005°05'510.1
2018-Feb-21 07:30N 48°05' W 005°11'4 8.6
2018-Feb-21 07:00N 48°02' W 005°07'5 9.8
2018-Feb-21 06:30N 47°59' W 005°01'5 9.9
2018-Feb-21 06:00N 47°56' W 004°55'510.2
2018-Feb-21 05:31N 47°53' W 004°49'510.4
2018-Feb-21 05:01N 47°51' W 004°42'510.4
2018-Feb-21 04:30N 47°48' W 004°35'510.4
2018-Feb-21 04:00N 47°45' W 004°29'510.3
2018-Feb-21 03:30N 47°43' W 004°22'510.4
2018-Feb-21 03:00N 47°40' W 004°15'510.2
2018-Feb-21 02:30N 47°37' W 004°09'510.1
2018-Feb-21 01:58N 47°35' W 004°02'510.0
2018-Feb-21 01:30N 47°32' W 003°56'5 9.9
2018-Feb-21 01:00N 47°30' W 003°50'510.0
2018-Feb-21 00:30N 47°27' W 003°43'5 9.9
2018-Feb-21 00:00N 47°25' W 003°37'5 9.9
2018-Feb-20 23:30N 47°22' W 003°31'5 9.8
2018-Feb-20 23:00N 47°20' W 003°25'5 9.8
2018-Feb-20 22:30N 47°17' W 003°19'5 9.9
2018-Feb-20 22:00N 47°14' W 003°13'510.1
2018-Feb-20 21:30N 47°11' W 003°06'5 9.9
2018-Feb-20 21:00N 47°09' W 003°00'5 9.7
2018-Feb-20 20:28N 47°07' W 002°53'7 9.5
2018-Feb-20 19:46N 47°04' W 002°45'3 9.4
2018-Feb-20 19:29N 47°03' W 002°41'5 9.9
2018-Feb-20 19:00N 47°02' W 002°34'510.4
2018-Feb-20 18:30N 47°04' W 002°27'510.3
2018-Feb-20 18:00N 47°08' W 002°22'510.6
2018-Feb-20 17:30N 47°12' W 002°17'5 9.6
2018-Feb-20 17:00N 47°16' W 002°12'1 1.2
2018-Feb-20 16:30N 47°16' W 002°12'1 1.8
2018-Feb-20 15:59N 47°17' W 002°12'0 0.0
2018-Feb-20 15:29N 47°17' W 002°12'0 0.0
2018-Feb-20 14:59N 47°17' W 002°12'0 0.0
2018-Feb-20 14:20N 47°17' W 002°12'0 0.0
2018-Feb-20 13:56N 47°17' W 002°12'0 0.0
2018-Feb-20 13:29N 47°17' W 002°12'0 0.0
2018-Feb-20 12:59N 47°17' W 002°12'0 0.0
2018-Feb-20 12:23N 47°17' W 002°12'0 0.0
2018-Feb-20 11:59N 47°17' W 002°12'0 0.0
2018-Feb-20 11:26N 47°17' W 002°12'0 0.0
2018-Feb-20 10:59N 47°17' W 002°12'0 0.0
2018-Feb-20 10:26N 47°17' W 002°12'0 0.0
2018-Feb-20 09:59N 47°17' W 002°12'0 0.0
2018-Feb-20 09:08N 47°17' W 002°12'0 0.0
2018-Feb-20 08:41N 47°17' W 002°12'0 0.0
2018-Feb-20 08:23N 47°17' W 002°12'0 0.0
2018-Feb-20 07:56N 47°17' W 002°12'0 0.0
2018-Feb-20 07:17N 47°17' W 002°12'0 0.0
2018-Feb-20 04:41N 47°17' W 002°12'0 0.0
2018-Feb-20 00:44N 47°17' W 002°12'0 0.0
2018-Feb-20 00:26N 47°17' W 002°12'0 0.0
2018-Feb-19 22:56N 47°17' W 002°12'0 0.0
2018-Feb-19 22:23N 47°17' W 002°12'0 0.0
2018-Feb-19 20:35N 47°17' W 002°12'0 0.0
2018-Feb-19 20:29N 47°17' W 002°12'0 0.0
2018-Feb-19 19:56N 47°17' W 002°12'0 0.0
2018-Feb-19 19:29N 47°17' W 002°12'0 0.0
2018-Feb-19 18:59N 47°17' W 002°12'0 0.0
2018-Feb-19 18:20N 47°17' W 002°12'0 0.0
2018-Feb-19 17:56N 47°17' W 002°12'0 0.0
2018-Feb-19 17:29N 47°17' W 002°12'0 0.0
2018-Feb-19 16:56N 47°17' W 002°12'0 0.0
2018-Feb-19 16:29N 47°17' W 002°12'0 0.0
2018-Feb-19 15:59N 47°17' W 002°12'0 0.0
2018-Feb-19 15:29N 47°17' W 002°12'0 0.0
2018-Feb-19 14:59N 47°17' W 002°12'0 0.0
2018-Feb-19 14:20N 47°17' W 002°12'0 0.0
2018-Feb-19 13:53N 47°17' W 002°12'0 0.0
2018-Feb-19 13:29N 47°17' W 002°12'0 0.0
2018-Feb-19 12:59N 47°17' W 002°12'0 0.0
2018-Feb-19 12:11N 47°17' W 002°12'0 0.0
2018-Feb-19 11:59N 47°17' W 002°12'0 0.0
2018-Feb-19 11:29N 47°17' W 002°12'0 0.0
2018-Feb-19 10:59N 47°17' W 002°12'0 0.0
2018-Feb-19 10:29N 47°17' W 002°12'0 0.0
2018-Feb-19 09:53N 47°17' W 002°12'0 0.0
2018-Feb-19 09:29N 47°17' W 002°12'0 0.0
2018-Feb-19 08:20N 47°17' W 002°12'0 0.0
2018-Feb-19 07:56N 47°17' W 002°12'0 0.0
2018-Feb-19 07:29N 47°17' W 002°12'0 0.0
2018-Feb-19 06:56N 47°17' W 002°12'0 0.0
2018-Feb-19 06:23N 47°17' W 002°12'0 0.0
2018-Feb-19 05:59N 47°17' W 002°12'0 0.0
2018-Feb-19 05:23N 47°17' W 002°12'0 0.0
2018-Feb-19 04:11N 47°17' W 002°12'0 0.0
2018-Feb-19 03:56N 47°17' W 002°12'0 0.0
2018-Feb-19 03:20N 47°17' W 002°12'0 0.0
2018-Feb-19 02:56N 47°17' W 002°12'0 0.0
2018-Feb-19 02:14N 47°17' W 002°12'0 0.0
2018-Feb-19 01:56N 47°17' W 002°12'0 0.0
2018-Feb-19 01:20N 47°17' W 002°12'0 0.0
2018-Feb-19 00:59N 47°17' W 002°12'0 0.0
2018-Feb-19 00:11N 47°17' W 002°12'0 0.0
2018-Feb-18 23:59N 47°17' W 002°12'0 0.0
2018-Feb-18 23:23N 47°17' W 002°12'0 0.0
2018-Feb-18 22:53N 47°17' W 002°12'0 0.0
2018-Feb-18 22:29N 47°17' W 002°12'0 0.0
2018-Feb-18 21:53N 47°17' W 002°12'0 0.0
2018-Feb-18 21:23N 47°17' W 002°12'0 0.0
2018-Feb-18 20:56N 47°17' W 002°12'0 0.0
2018-Feb-18 20:29N 47°17' W 002°12'0 0.0
2018-Feb-18 19:56N 47°17' W 002°12'0 0.0
2018-Feb-18 19:29N 47°17' W 002°12'0 0.0
2018-Feb-18 18:56N 47°17' W 002°12'0 0.0
2018-Feb-18 18:26N 47°17' W 002°12'0 0.0
2018-Feb-18 17:59N 47°17' W 002°12'0 0.0
2018-Feb-18 17:29N 47°17' W 002°12'0 0.0
2018-Feb-18 16:53N 47°17' W 002°12'0 0.0
2018-Feb-18 16:29N 47°17' W 002°12'0 0.0
2018-Feb-18 15:59N 47°17' W 002°12'0 0.0
2018-Feb-18 15:29N 47°17' W 002°12'0 0.0
2018-Feb-18 14:59N 47°17' W 002°12'0 0.0
2018-Feb-18 14:26N 47°17' W 002°12'0 0.0
2018-Feb-18 13:59N 47°17' W 002°12'0 0.0
2018-Feb-18 13:29N 47°17' W 002°12'0 0.0
2018-Feb-18 12:59N 47°17' W 002°12'0 0.0
2018-Feb-18 12:29N 47°17' W 002°12'0 0.0
2018-Feb-18 11:59N 47°17' W 002°12'0 0.0
2018-Feb-18 11:26N 47°17' W 002°12'0 0.0
2018-Feb-18 10:59N 47°17' W 002°12'0 0.0
2018-Feb-18 09:44N 47°17' W 002°12'0 0.0
2018-Feb-18 09:23N 47°17' W 002°12'0 0.0
2018-Feb-18 08:26N 47°17' W 002°12'0 0.0
2018-Feb-18 07:56N 47°17' W 002°12'0 0.0
2018-Feb-18 07:29N 47°17' W 002°12'0 0.0
2018-Feb-18 06:50N 47°17' W 002°12'0 0.0
2018-Feb-18 06:29N 47°17' W 002°12'0 0.0
2018-Feb-18 05:59N 47°17' W 002°12'0 0.0
2018-Feb-18 05:29N 47°17' W 002°12'0 0.0
2018-Feb-18 04:53N 47°17' W 002°12'0 0.0
2018-Feb-18 04:29N 47°17' W 002°12'0 0.0
2018-Feb-18 03:59N 47°17' W 002°12'0 0.0
2018-Feb-18 03:26N 47°17' W 002°12'0 0.0
2018-Feb-18 02:59N 47°17' W 002°12'0 0.0
2018-Feb-18 02:23N 47°17' W 002°12'0 0.0
2018-Feb-18 01:56N 47°17' W 002°12'0 0.0
2018-Feb-18 01:29N 47°17' W 002°12'0 0.0
2018-Feb-18 00:59N 47°17' W 002°12'0 0.0
2018-Feb-18 00:29N 47°17' W 002°12'0 0.0
2018-Feb-17 23:59N 47°17' W 002°12'0 0.0
2018-Feb-17 23:26N 47°17' W 002°12'0 0.0
2018-Feb-17 22:59N 47°17' W 002°12'0 0.0
2018-Feb-17 22:29N 47°17' W 002°12'0 0.0
2018-Feb-17 21:56N 47°17' W 002°12'0 0.0
2018-Feb-17 21:29N 47°17' W 002°12'0 0.0
2018-Feb-17 20:56N 47°17' W 002°12'0 0.0
2018-Feb-17 20:20N 47°17' W 002°12'0 0.0
2018-Feb-17 19:53N 47°17' W 002°12'0 0.0
2018-Feb-17 19:29N 47°17' W 002°12'0 0.0
2018-Feb-17 18:53N 47°17' W 002°12'0 0.0
2018-Feb-17 18:29N 47°17' W 002°12'0 0.0
2018-Feb-17 17:59N 47°17' W 002°12'0 0.0
2018-Feb-17 17:29N 47°17' W 002°12'0 0.0
2018-Feb-17 16:47N 47°17' W 002°12'0 0.0
2018-Feb-17 16:17N 47°17' W 002°12'0 0.0
2018-Feb-17 15:59N 47°17' W 002°12'0 0.0
2018-Feb-17 15:29N 47°17' W 002°12'0 0.0
2018-Feb-17 14:59N 47°17' W 002°12'0 0.0
2018-Feb-17 14:29N 47°17' W 002°12'0 0.0
2018-Feb-17 13:56N 47°17' W 002°12'0 0.0
2018-Feb-17 13:29N 47°17' W 002°12'0 0.0
2018-Feb-17 12:47N 47°17' W 002°12'0 0.0
2018-Feb-17 12:29N 47°17' W 002°12'0 0.0
2018-Feb-17 11:59N 47°17' W 002°12'0 0.0
2018-Feb-17 11:23N 47°17' W 002°12'0 0.0
2018-Feb-17 10:59N 47°17' W 002°12'0 0.0
2018-Feb-17 10:29N 47°17' W 002°12'0 0.0
2018-Feb-17 09:56N 47°17' W 002°12'0 0.0
2018-Feb-17 09:29N 47°17' W 002°12'0 0.0
2018-Feb-17 08:50N 47°17' W 002°12'0 0.1
2018-Feb-17 08:29N 47°17' W 002°12'0 0.1
2018-Feb-17 07:59N 47°17' W 002°12'0 0.0
2018-Feb-17 07:29N 47°17' W 002°12'0 0.0
2018-Feb-17 06:59N 47°17' W 002°12'0 0.0
2018-Feb-17 06:26N 47°17' W 002°12'0 0.0
2018-Feb-17 05:59N 47°17' W 002°12'0 0.0
2018-Feb-17 05:29N 47°17' W 002°12'0 0.0
2018-Feb-17 04:59N 47°17' W 002°12'0 0.0
2018-Feb-17 04:14N 47°17' W 002°12'0 0.0
2018-Feb-17 03:59N 47°17' W 002°12'0 0.0
2018-Feb-17 03:23N 47°17' W 002°12'0 0.0
2018-Feb-17 02:53N 47°17' W 002°12'0 0.0
2018-Feb-17 02:29N 47°17' W 002°12'0 0.0
2018-Feb-17 01:59N 47°17' W 002°12'0 0.0
2018-Feb-17 01:29N 47°17' W 002°12'0 0.0
2018-Feb-17 00:59N 47°17' W 002°12'0 0.0
2018-Feb-17 00:29N 47°17' W 002°12'0 0.0
2018-Feb-16 23:59N 47°17' W 002°12'0 0.0
2018-Feb-16 23:29N 47°17' W 002°12'0 0.0
2018-Feb-16 22:59N 47°17' W 002°12'0 0.0
2018-Feb-16 22:29N 47°17' W 002°12'0 0.0
2018-Feb-16 21:59N 47°17' W 002°12'0 0.0
2018-Feb-16 21:23N 47°17' W 002°12'0 0.0
2018-Feb-16 20:59N 47°17' W 002°12'0 0.0
2018-Feb-16 20:29N 47°17' W 002°12'0 0.0
2018-Feb-16 19:59N 47°17' W 002°12'0 0.0
2018-Feb-16 19:29N 47°17' W 002°12'0 0.0
2018-Feb-16 18:59N 47°17' W 002°12'0 0.0
2018-Feb-16 18:29N 47°17' W 002°12'0 0.0
2018-Feb-16 17:59N 47°17' W 002°12'0 0.0
2018-Feb-16 17:29N 47°17' W 002°12'0 0.0
2018-Feb-16 16:59N 47°17' W 002°12'0 0.0
2018-Feb-16 16:23N 47°17' W 002°12'0 0.0
2018-Feb-16 15:59N 47°17' W 002°12'0 0.0
2018-Feb-16 15:26N 47°17' W 002°12'0 0.0
2018-Feb-16 14:44N 47°17' W 002°12'0 0.0
2018-Feb-16 14:23N 47°17' W 002°12'0 0.0
2018-Feb-16 13:59N 47°17' W 002°12'0 0.0
2018-Feb-16 13:26N 47°17' W 002°12'0 0.0
2018-Feb-16 12:59N 47°17' W 002°12'0 0.0
2018-Feb-16 12:29N 47°17' W 002°12'0 0.0
2018-Feb-16 11:59N 47°17' W 002°12'0 0.0
2018-Feb-16 11:26N 47°17' W 002°12'0 0.0
2018-Feb-16 10:59N 47°17' W 002°12'0 0.0
2018-Feb-16 10:29N 47°17' W 002°12'0 0.0
2018-Feb-16 09:59N 47°17' W 002°12'0 0.0
2018-Feb-16 09:29N 47°17' W 002°12'0 0.0
2018-Feb-16 08:59N 47°17' W 002°12'0 0.0
2018-Feb-16 08:29N 47°17' W 002°12'0 0.0
2018-Feb-16 07:56N 47°17' W 002°12'0 0.0
2018-Feb-16 07:29N 47°17' W 002°12'0 0.0
2018-Feb-16 06:59N 47°17' W 002°12'0 0.0
2018-Feb-16 06:29N 47°17' W 002°12'1 1.5
2018-Feb-16 06:00N 47°17' W 002°12'0 0.6
2018-Feb-16 05:30N 47°16' W 002°12'1 2.9
2018-Feb-16 05:00N 47°15' W 002°13'4 7.3
2018-Feb-16 04:30N 47°12' W 002°17'5 9.9
2018-Feb-16 04:01N 47°08' W 002°20'5 9.1
2018-Feb-16 03:31N 47°07' W 002°27'1 1.2
2018-Feb-16 02:58N 47°06' W 002°26'0 0.0
2018-Feb-16 02:28N 47°06' W 002°26'0 0.0
2018-Feb-16 01:58N 47°06' W 002°26'0 0.0
2018-Feb-16 01:28N 47°06' W 002°26'0 0.0
2018-Feb-16 00:58N 47°06' W 002°26'0 0.0
2018-Feb-16 00:28N 47°06' W 002°26'0 0.0
2018-Feb-15 23:58N 47°06' W 002°26'0 0.0
2018-Feb-15 23:28N 47°06' W 002°26'0 0.1
2018-Feb-15 22:49N 47°06' W 002°26'0 0.2
2018-Feb-15 22:25N 47°06' W 002°26'0 0.1
2018-Feb-15 21:49N 47°06' W 002°26'0 0.1
2018-Feb-15 21:25N 47°06' W 002°26'0 0.0
2018-Feb-15 20:52N 47°06' W 002°26'0 0.1
2018-Feb-15 20:28N 47°06' W 002°26'0 0.1
2018-Feb-15 19:56N 47°06' W 002°26'1 2.8
2018-Feb-15 19:30N 47°05' W 002°27'4 8.8
2018-Feb-15 19:00N 47°02' W 002°32'5 9.4
2018-Feb-15 18:29N 46°60' W 002°38'7 9.3
2018-Feb-15 17:44N 46°54' W 002°45'212 9.8
2018-Feb-14 20:08N 43°53' W 005°23'1 9.5
2018-Feb-14 19:59N 43°52' W 005°24'5 9.7
2018-Feb-14 19:30N 43°48' W 005°28'5 9.7
2018-Feb-14 19:00N 43°44' W 005°31'5 9.6
2018-Feb-14 18:30N 43°40' W 005°34'5 9.2
2018-Feb-14 18:00N 43°36' W 005°37'4 7.9
2018-Feb-14 17:30N 43°34' W 005°42'0 0.2
2018-Feb-14 16:52N 43°34' W 005°42'0 0.0
2018-Feb-14 12:52N 43°34' W 005°42'0 0.0
2018-Feb-14 12:10N 43°34' W 005°42'0 0.0
2018-Feb-14 11:52N 43°34' W 005°42'0 0.0
2018-Feb-14 11:16N 43°34' W 005°42'0 0.0
2018-Feb-14 10:58N 43°34' W 005°42'0 0.0
2018-Feb-14 10:22N 43°34' W 005°42'0 0.0
2018-Feb-14 09:58N 43°34' W 005°42'0 0.0
2018-Feb-14 09:28N 43°34' W 005°42'0 0.0
2018-Feb-14 08:58N 43°34' W 005°42'0 0.0
2018-Feb-14 07:28N 43°34' W 005°42'0 0.0
2018-Feb-14 06:58N 43°34' W 005°42'0 0.0
2018-Feb-14 06:28N 43°34' W 005°42'0 0.0
2018-Feb-14 05:46N 43°34' W 005°42'0 0.0
2018-Feb-14 04:52N 43°34' W 005°42'0 0.0
2018-Feb-14 04:28N 43°34' W 005°42'0 0.0
2018-Feb-14 03:58N 43°34' W 005°42'0 0.0
2018-Feb-14 03:28N 43°34' W 005°42'0 0.0
2018-Feb-14 02:52N 43°34' W 005°42'0 0.0
2018-Feb-14 02:28N 43°34' W 005°42'0 0.0
2018-Feb-14 01:58N 43°34' W 005°42'0 0.0
2018-Feb-14 01:28N 43°34' W 005°42'0 0.0
2018-Feb-14 00:58N 43°34' W 005°42'0 0.0
2018-Feb-13 23:10N 43°34' W 005°42'0 0.0
2018-Feb-13 22:58N 43°34' W 005°42'0 0.0
2018-Feb-13 22:22N 43°34' W 005°42'0 0.0
2018-Feb-13 20:28N 43°34' W 005°42'0 0.0
2018-Feb-13 19:52N 43°34' W 005°42'0 0.0
2018-Feb-13 19:22N 43°34' W 005°42'0 0.0
2018-Feb-13 18:58N 43°34' W 005°42'0 0.0
2018-Feb-13 18:28N 43°34' W 005°42'0 0.0
2018-Feb-13 17:58N 43°34' W 005°42'0 0.0
2018-Feb-13 17:28N 43°34' W 005°42'0 0.0
2018-Feb-13 16:46N 43°34' W 005°42'0 0.0
2018-Feb-13 12:46N 43°34' W 005°42'0 0.0
2018-Feb-13 12:28N 43°34' W 005°42'0 0.3
2018-Feb-13 11:59N 43°34' W 005°42'2 4.1
2018-Feb-13 11:30N 43°35' W 005°40'510.0
2018-Feb-13 11:00N 43°40' W 005°39'5 9.9
2018-Feb-13 10:30N 43°45' W 005°39'5 9.2
2018-Feb-13 10:00N 43°50' W 005°40'5 9.0
2018-Feb-13 09:28N 43°54' W 005°42'2 3.8
2018-Feb-13 08:52N 43°53' W 005°45'2 6.3
2018-Feb-13 08:30N 43°52' W 005°48'5 9.2
2018-Feb-13 07:56N 43°49' W 005°53'4 8.2
2018-Feb-13 07:27N 43°45' W 005°56'4 8.1
2018-Feb-13 07:00N 43°42' W 005°57'4 8.2
2018-Feb-13 06:29N 43°38' W 005°58'  
Track history (hours):
 
Tides and Currents Weather Stations Pressure Air Temp Water Temp Dewpoint Dewpoint Depression Visibility Wind Speed Wind Dir Waves Ship Positions

Angon

Last reported at 2018-Feb-23 01:25 UTC. Time now 2018-Feb-24 16:37 UTC.
Position N 47°31' W 005°53'.

Length 89 m; draft 5.9 m.

Type: Cargo ship. MMSI: 255802380.

Date/timePositionNaut miles runAvg speedWind from/ knotsBaromVisibWave heightAir tempDewpointWater temp
2018-Feb-23 01:25N 47°31' W 005°53'5 9.9
2018-Feb-23 00:56N 47°35' W 005°49'7 9.9
2018-Feb-23 00:14N 47°41' W 005°42'4 9.9
2018-Feb-22 23:50N 47°44' W 005°39'4 9.9
2018-Feb-22 23:28N 47°47' W 005°36'5 9.8
2018-Feb-22 23:00N 47°50' W 005°32'5 9.6
2018-Feb-22 22:30N 47°54' W 005°27'5 9.4
2018-Feb-22 22:00N 47°58' W 005°23'5 9.3
2018-Feb-22 21:30N 48°02' W 005°19'5 8.9
2018-Feb-22 20:59N 48°05' W 005°14'4 8.7
2018-Feb-22 20:30N 48°07' W 005°09'4 8.2
2018-Feb-22 20:00N 48°09' W 005°04'4 8.4
2018-Feb-22 19:31N 48°12' W 004°59'4 8.8
2018-Feb-22 19:00N 48°14' W 004°53'4 9.0
2018-Feb-22 18:31N 48°16' W 004°47'5 9.1
2018-Feb-22 18:01N 48°18' W 004°41'4 8.9
2018-Feb-22 17:31N 48°20' W 004°35'4 7.6
2018-Feb-22 17:00N 48°22' W 004°30'2 4.7
2018-Feb-22 16:30N 48°23' W 004°27'0 0.0
2018-Feb-22 16:00N 48°23' W 004°27'0 0.0
2018-Feb-22 15:30N 48°23' W 004°27'0 0.0
2018-Feb-22 15:00N 48°23' W 004°27'0 0.0
2018-Feb-22 14:30N 48°23' W 004°27'0 0.0
2018-Feb-22 14:00N 48°23' W 004°27'0 0.0
2018-Feb-22 13:30N 48°23' W 004°27'0 0.0
2018-Feb-22 13:00N 48°23' W 004°27'0 0.0
2018-Feb-22 12:30N 48°23' W 004°27'0 0.0
2018-Feb-22 12:00N 48°23' W 004°27'0 0.0
2018-Feb-22 11:30N 48°23' W 004°27'0 0.0
2018-Feb-22 11:00N 48°23' W 004°27'0 0.0
2018-Feb-22 10:30N 48°23' W 004°27'0 0.0
2018-Feb-22 10:00N 48°23' W 004°27'0 0.0
2018-Feb-22 09:30N 48°23' W 004°27'0 0.0
2018-Feb-22 09:01N 48°23' W 004°27'0 0.0
2018-Feb-22 08:30N 48°23' W 004°27'0 0.0
2018-Feb-22 08:00N 48°23' W 004°27'0 0.0
2018-Feb-22 07:30N 48°23' W 004°27'0 0.0
2018-Feb-22 07:00N 48°23' W 004°27'0 0.0
2018-Feb-22 06:30N 48°23' W 004°27'0 0.0
2018-Feb-22 06:00N 48°23' W 004°27'0 0.0
2018-Feb-22 05:30N 48°23' W 004°27'0 0.0
2018-Feb-22 05:00N 48°23' W 004°27'0 0.0
2018-Feb-22 04:30N 48°23' W 004°27'0 0.0
2018-Feb-22 04:00N 48°23' W 004°27'0 0.0
2018-Feb-22 03:27N 48°23' W 004°27'0 0.0
2018-Feb-22 03:00N 48°23' W 004°27'0 0.0
2018-Feb-22 02:30N 48°23' W 004°27'0 0.0
2018-Feb-22 02:00N 48°23' W 004°27'0 0.0
2018-Feb-22 01:30N 48°23' W 004°27'0 0.0
2018-Feb-22 01:00N 48°23' W 004°27'0 0.0
2018-Feb-22 00:30N 48°23' W 004°27'0 0.0
2018-Feb-22 00:00N 48°23' W 004°27'0 0.0
2018-Feb-21 23:30N 48°23' W 004°27'0 0.0
2018-Feb-21 23:00N 48°23' W 004°27'0 0.0
2018-Feb-21 22:30N 48°23' W 004°27'0 0.0
2018-Feb-21 22:00N 48°23' W 004°27'0 0.0
2018-Feb-21 21:30N 48°23' W 004°27'0 0.0
2018-Feb-21 21:00N 48°23' W 004°27'0 0.0
2018-Feb-21 20:30N 48°23' W 004°27'0 0.0
2018-Feb-21 20:00N 48°23' W 004°27'0 0.0
2018-Feb-21 19:30N 48°23' W 004°27'0 0.0
2018-Feb-21 19:00N 48°23' W 004°27'0 0.0
2018-Feb-21 18:31N 48°23' W 004°27'0 0.0
2018-Feb-21 18:00N 48°23' W 004°27'0 0.0
2018-Feb-21 17:30N 48°23' W 004°27'0 0.0
2018-Feb-21 17:00N 48°23' W 004°27'0 0.0
2018-Feb-21 16:30N 48°23' W 004°27'0 0.0
2018-Feb-21 16:00N 48°23' W 004°27'0 0.0
2018-Feb-21 15:30N 48°23' W 004°27'0 0.0
2018-Feb-21 15:00N 48°23' W 004°27'0 0.0
2018-Feb-21 14:30N 48°23' W 004°27'0 0.0
2018-Feb-21 14:00N 48°23' W 004°27'0 0.0
2018-Feb-21 13:30N 48°23' W 004°27'0 0.0
2018-Feb-21 13:01N 48°23' W 004°27'0 0.0
2018-Feb-21 12:30N 48°23' W 004°27'0 0.0
2018-Feb-21 12:00N 48°23' W 004°27'0 0.0
2018-Feb-21 11:30N 48°23' W 004°27'1 2.3
2018-Feb-21 11:01N 48°22' W 004°28'5 9.3
2018-Feb-21 10:31N 48°20' W 004°34'4 8.9
2018-Feb-21 10:00N 48°18' W 004°41'5 9.3
2018-Feb-21 09:30N 48°16' W 004°47'5 9.6
2018-Feb-21 09:00N 48°14' W 004°53'5 9.7
2018-Feb-21 08:30N 48°11' W 004°59'510.3
2018-Feb-21 08:00N 48°08' W 005°05'510.1
2018-Feb-21 07:30N 48°05' W 005°11'4 8.6
2018-Feb-21 07:00N 48°02' W 005°07'5 9.8
2018-Feb-21 06:30N 47°59' W 005°01'5 9.9
2018-Feb-21 06:00N 47°56' W 004°55'510.2
2018-Feb-21 05:31N 47°53' W 004°49'510.4
2018-Feb-21 05:01N 47°51' W 004°42'510.4
2018-Feb-21 04:30N 47°48' W 004°35'510.4
2018-Feb-21 04:00N 47°45' W 004°29'510.3
2018-Feb-21 03:30N 47°43' W 004°22'510.4
2018-Feb-21 03:00N 47°40' W 004°15'510.2
2018-Feb-21 02:30N 47°37' W 004°09'510.1
2018-Feb-21 01:58N 47°35' W 004°02'510.0
2018-Feb-21 01:30N 47°32' W 003°56'5 9.9
2018-Feb-21 01:00N 47°30' W 003°50'510.0
2018-Feb-21 00:30N 47°27' W 003°43'5 9.9
2018-Feb-21 00:00N 47°25' W 003°37'5 9.9
2018-Feb-20 23:30N 47°22' W 003°31'5 9.8
2018-Feb-20 23:00N 47°20' W 003°25'5 9.8
2018-Feb-20 22:30N 47°17' W 003°19'5 9.9
2018-Feb-20 22:00N 47°14' W 003°13'510.1
2018-Feb-20 21:30N 47°11' W 003°06'5 9.9
2018-Feb-20 21:00N 47°09' W 003°00'5 9.7
2018-Feb-20 20:28N 47°07' W 002°53'7 9.5
2018-Feb-20 19:46N 47°04' W 002°45'3 9.4
2018-Feb-20 19:29N 47°03' W 002°41'5 9.9
2018-Feb-20 19:00N 47°02' W 002°34'510.4
2018-Feb-20 18:30N 47°04' W 002°27'510.3
2018-Feb-20 18:00N 47°08' W 002°22'510.6
2018-Feb-20 17:30N 47°12' W 002°17'5 9.6
2018-Feb-20 17:00N 47°16' W 002°12'1 1.2
2018-Feb-20 16:30N 47°16' W 002°12'1 1.8
2018-Feb-20 15:59N 47°17' W 002°12'0 0.0
2018-Feb-20 15:29N 47°17' W 002°12'0 0.0
2018-Feb-20 14:59N 47°17' W 002°12'0 0.0
2018-Feb-20 14:20N 47°17' W 002°12'0 0.0
2018-Feb-20 13:56N 47°17' W 002°12'0 0.0
2018-Feb-20 13:29N 47°17' W 002°12'0 0.0
2018-Feb-20 12:59N 47°17' W 002°12'0 0.0
2018-Feb-20 12:23N 47°17' W 002°12'0 0.0
2018-Feb-20 11:59N 47°17' W 002°12'0 0.0
2018-Feb-20 11:26N 47°17' W 002°12'0 0.0
2018-Feb-20 10:59N 47°17' W 002°12'0 0.0
2018-Feb-20 10:26N 47°17' W 002°12'0 0.0
2018-Feb-20 09:59N 47°17' W 002°12'0 0.0
2018-Feb-20 09:08N 47°17' W 002°12'0 0.0
2018-Feb-20 08:41N 47°17' W 002°12'0 0.0
2018-Feb-20 08:23N 47°17' W 002°12'0 0.0
2018-Feb-20 07:56N 47°17' W 002°12'0 0.0
2018-Feb-20 07:17N 47°17' W 002°12'0 0.0
2018-Feb-20 04:41N 47°17' W 002°12'0 0.0
2018-Feb-20 00:44N 47°17' W 002°12'0 0.0
2018-Feb-20 00:26N 47°17' W 002°12'0 0.0
2018-Feb-19 22:56N 47°17' W 002°12'0 0.0
2018-Feb-19 22:23N 47°17' W 002°12'0 0.0
2018-Feb-19 20:35N 47°17' W 002°12'0 0.0
2018-Feb-19 20:29N 47°17' W 002°12'0 0.0
2018-Feb-19 19:56N 47°17' W 002°12'0 0.0
2018-Feb-19 19:29N 47°17' W 002°12'0 0.0
2018-Feb-19 18:59N 47°17' W 002°12'0 0.0
2018-Feb-19 18:20N 47°17' W 002°12'0 0.0
2018-Feb-19 17:56N 47°17' W 002°12'0 0.0
2018-Feb-19 17:29N 47°17' W 002°12'0 0.0
2018-Feb-19 16:56N 47°17' W 002°12'0 0.0
2018-Feb-19 16:29N 47°17' W 002°12'0 0.0
2018-Feb-19 15:59N 47°17' W 002°12'0 0.0
2018-Feb-19 15:29N 47°17' W 002°12'0 0.0
2018-Feb-19 14:59N 47°17' W 002°12'0 0.0
2018-Feb-19 14:20N 47°17' W 002°12'0 0.0
2018-Feb-19 13:53N 47°17' W 002°12'0 0.0
2018-Feb-19 13:29N 47°17' W 002°12'0 0.0
2018-Feb-19 12:59N 47°17' W 002°12'0 0.0
2018-Feb-19 12:11N 47°17' W 002°12'0 0.0
2018-Feb-19 11:59N 47°17' W 002°12'0 0.0
2018-Feb-19 11:29N 47°17' W 002°12'0 0.0
2018-Feb-19 10:59N 47°17' W 002°12'0 0.0
2018-Feb-19 10:29N 47°17' W 002°12'0 0.0
2018-Feb-19 09:53N 47°17' W 002°12'0 0.0
2018-Feb-19 09:29N 47°17' W 002°12'0 0.0
2018-Feb-19 08:20N 47°17' W 002°12'0 0.0
2018-Feb-19 07:56N 47°17' W 002°12'0 0.0
2018-Feb-19 07:29N 47°17' W 002°12'0 0.0
2018-Feb-19 06:56N 47°17' W 002°12'0 0.0
2018-Feb-19 06:23N 47°17' W 002°12'0 0.0
2018-Feb-19 05:59N 47°17' W 002°12'0 0.0
2018-Feb-19 05:23N 47°17' W 002°12'0 0.0
2018-Feb-19 04:11N 47°17' W 002°12'0 0.0
2018-Feb-19 03:56N 47°17' W 002°12'0 0.0
2018-Feb-19 03:20N 47°17' W 002°12'0 0.0
2018-Feb-19 02:56N 47°17' W 002°12'0 0.0
2018-Feb-19 02:14N 47°17' W 002°12'0 0.0
2018-Feb-19 01:56N 47°17' W 002°12'0 0.0
2018-Feb-19 01:20N 47°17' W 002°12'0 0.0
2018-Feb-19 00:59N 47°17' W 002°12'0 0.0
2018-Feb-19 00:11N 47°17' W 002°12'0 0.0
2018-Feb-18 23:59N 47°17' W 002°12'0 0.0
2018-Feb-18 23:23N 47°17' W 002°12'0 0.0
2018-Feb-18 22:53N 47°17' W 002°12'0 0.0
2018-Feb-18 22:29N 47°17' W 002°12'0 0.0
2018-Feb-18 21:53N 47°17' W 002°12'0 0.0
2018-Feb-18 21:23N 47°17' W 002°12'0 0.0
2018-Feb-18 20:56N 47°17' W 002°12'0 0.0
2018-Feb-18 20:29N 47°17' W 002°12'0 0.0
2018-Feb-18 19:56N 47°17' W 002°12'0 0.0
2018-Feb-18 19:29N 47°17' W 002°12'0 0.0
2018-Feb-18 18:56N 47°17' W 002°12'0 0.0
2018-Feb-18 18:26N 47°17' W 002°12'0 0.0
2018-Feb-18 17:59N 47°17' W 002°12'0 0.0
2018-Feb-18 17:29N 47°17' W 002°12'0 0.0
2018-Feb-18 16:53N 47°17' W 002°12'0 0.0
2018-Feb-18 16:29N 47°17' W 002°12'0 0.0
2018-Feb-18 15:59N 47°17' W 002°12'0 0.0
2018-Feb-18 15:29N 47°17' W 002°12'0 0.0
2018-Feb-18 14:59N 47°17' W 002°12'0 0.0
2018-Feb-18 14:26N 47°17' W 002°12'0 0.0
2018-Feb-18 13:59N 47°17' W 002°12'0 0.0
2018-Feb-18 13:29N 47°17' W 002°12'0 0.0
2018-Feb-18 12:59N 47°17' W 002°12'0 0.0
2018-Feb-18 12:29N 47°17' W 002°12'0 0.0
2018-Feb-18 11:59N 47°17' W 002°12'0 0.0
2018-Feb-18 11:26N 47°17' W 002°12'0 0.0
2018-Feb-18 10:59N 47°17' W 002°12'0 0.0
2018-Feb-18 09:44N 47°17' W 002°12'0 0.0
2018-Feb-18 09:23N 47°17' W 002°12'0 0.0
2018-Feb-18 08:26N 47°17' W 002°12'0 0.0
2018-Feb-18 07:56N 47°17' W 002°12'0 0.0
2018-Feb-18 07:29N 47°17' W 002°12'0 0.0
2018-Feb-18 06:50N 47°17' W 002°12'0 0.0
2018-Feb-18 06:29N 47°17' W 002°12'0 0.0
2018-Feb-18 05:59N 47°17' W 002°12'0 0.0
2018-Feb-18 05:29N 47°17' W 002°12'0 0.0
2018-Feb-18 04:53N 47°17' W 002°12'0 0.0
2018-Feb-18 04:29N 47°17' W 002°12'0 0.0
2018-Feb-18 03:59N 47°17' W 002°12'0 0.0
2018-Feb-18 03:26N 47°17' W 002°12'0 0.0
2018-Feb-18 02:59N 47°17' W 002°12'0 0.0
2018-Feb-18 02:23N 47°17' W 002°12'0 0.0
2018-Feb-18 01:56N 47°17' W 002°12'0 0.0
2018-Feb-18 01:29N 47°17' W 002°12'0 0.0
2018-Feb-18 00:59N 47°17' W 002°12'0 0.0
2018-Feb-18 00:29N 47°17' W 002°12'0 0.0
2018-Feb-17 23:59N 47°17' W 002°12'0 0.0
2018-Feb-17 23:26N 47°17' W 002°12'0 0.0
2018-Feb-17 22:59N 47°17' W 002°12'0 0.0
2018-Feb-17 22:29N 47°17' W 002°12'0 0.0
2018-Feb-17 21:56N 47°17' W 002°12'0 0.0
2018-Feb-17 21:29N 47°17' W 002°12'0 0.0
2018-Feb-17 20:56N 47°17' W 002°12'0 0.0
2018-Feb-17 20:20N 47°17' W 002°12'0 0.0
2018-Feb-17 19:53N 47°17' W 002°12'0 0.0
2018-Feb-17 19:29N 47°17' W 002°12'0 0.0
2018-Feb-17 18:53N 47°17' W 002°12'0 0.0
2018-Feb-17 18:29N 47°17' W 002°12'0 0.0
2018-Feb-17 17:59N 47°17' W 002°12'0 0.0
2018-Feb-17 17:29N 47°17' W 002°12'0 0.0
2018-Feb-17 16:47N 47°17' W 002°12'0 0.0
2018-Feb-17 16:17N 47°17' W 002°12'0 0.0
2018-Feb-17 15:59N 47°17' W 002°12'0 0.0
2018-Feb-17 15:29N 47°17' W 002°12'0 0.0
2018-Feb-17 14:59N 47°17' W 002°12'0 0.0
2018-Feb-17 14:29N 47°17' W 002°12'0 0.0
2018-Feb-17 13:56N 47°17' W 002°12'0 0.0
2018-Feb-17 13:29N 47°17' W 002°12'0 0.0
2018-Feb-17 12:47N 47°17' W 002°12'0 0.0
2018-Feb-17 12:29N 47°17' W 002°12'0 0.0
2018-Feb-17 11:59N 47°17' W 002°12'0 0.0
2018-Feb-17 11:23N 47°17' W 002°12'0 0.0
2018-Feb-17 10:59N 47°17' W 002°12'0 0.0
2018-Feb-17 10:29N 47°17' W 002°12'0 0.0
2018-Feb-17 09:56N 47°17' W 002°12'0 0.0
2018-Feb-17 09:29N 47°17' W 002°12'0 0.0
2018-Feb-17 08:50N 47°17' W 002°12'0 0.1
2018-Feb-17 08:29N 47°17' W 002°12'0 0.1
2018-Feb-17 07:59N 47°17' W 002°12'0 0.0
2018-Feb-17 07:29N 47°17' W 002°12'0 0.0
2018-Feb-17 06:59N 47°17' W 002°12'0 0.0
2018-Feb-17 06:26N 47°17' W 002°12'0 0.0
2018-Feb-17 05:59N 47°17' W 002°12'0 0.0
2018-Feb-17 05:29N 47°17' W 002°12'0 0.0
2018-Feb-17 04:59N 47°17' W 002°12'0 0.0
2018-Feb-17 04:14N 47°17' W 002°12'0 0.0
2018-Feb-17 03:59N 47°17' W 002°12'0 0.0
2018-Feb-17 03:23N 47°17' W 002°12'0 0.0
2018-Feb-17 02:53N 47°17' W 002°12'0 0.0
2018-Feb-17 02:29N 47°17' W 002°12'0 0.0
2018-Feb-17 01:59N 47°17' W 002°12'0 0.0
2018-Feb-17 01:29N 47°17' W 002°12'0 0.0
2018-Feb-17 00:59N 47°17' W 002°12'0 0.0
2018-Feb-17 00:29N 47°17' W 002°12'0 0.0
2018-Feb-16 23:59N 47°17' W 002°12'0 0.0
2018-Feb-16 23:29N 47°17' W 002°12'0 0.0
2018-Feb-16 22:59N 47°17' W 002°12'0 0.0
2018-Feb-16 22:29N 47°17' W 002°12'0 0.0
2018-Feb-16 21:59N 47°17' W 002°12'0 0.0
2018-Feb-16 21:23N 47°17' W 002°12'0 0.0
2018-Feb-16 20:59N 47°17' W 002°12'0 0.0
2018-Feb-16 20:29N 47°17' W 002°12'0 0.0
2018-Feb-16 19:59N 47°17' W 002°12'0 0.0
2018-Feb-16 19:29N 47°17' W 002°12'0 0.0
2018-Feb-16 18:59N 47°17' W 002°12'0 0.0
2018-Feb-16 18:29N 47°17' W 002°12'0 0.0
2018-Feb-16 17:59N 47°17' W 002°12'0 0.0
2018-Feb-16 17:29N 47°17' W 002°12'0 0.0
2018-Feb-16 16:59N 47°17' W 002°12'0 0.0
2018-Feb-16 16:23N 47°17' W 002°12'0 0.0
2018-Feb-16 15:59N 47°17' W 002°12'0 0.0
2018-Feb-16 15:26N 47°17' W 002°12'0 0.0
2018-Feb-16 14:44N 47°17' W 002°12'0 0.0
2018-Feb-16 14:23N 47°17' W 002°12'0 0.0
2018-Feb-16 13:59N 47°17' W 002°12'0 0.0
2018-Feb-16 13:26N 47°17' W 002°12'0 0.0
2018-Feb-16 12:59N 47°17' W 002°12'0 0.0
2018-Feb-16 12:29N 47°17' W 002°12'0 0.0
2018-Feb-16 11:59N 47°17' W 002°12'0 0.0
2018-Feb-16 11:26N 47°17' W 002°12'0 0.0
2018-Feb-16 10:59N 47°17' W 002°12'0 0.0
2018-Feb-16 10:29N 47°17' W 002°12'0 0.0
2018-Feb-16 09:59N 47°17' W 002°12'0 0.0
2018-Feb-16 09:29N 47°17' W 002°12'0 0.0
2018-Feb-16 08:59N 47°17' W 002°12'0 0.0
2018-Feb-16 08:29N 47°17' W 002°12'0 0.0
2018-Feb-16 07:56N 47°17' W 002°12'0 0.0
2018-Feb-16 07:29N 47°17' W 002°12'0 0.0
2018-Feb-16 06:59N 47°17' W 002°12'0 0.0
2018-Feb-16 06:29N 47°17' W 002°12'1 1.5
2018-Feb-16 06:00N 47°17' W 002°12'0 0.6
2018-Feb-16 05:30N 47°16' W 002°12'1 2.9
2018-Feb-16 05:00N 47°15' W 002°13'4 7.3
2018-Feb-16 04:30N 47°12' W 002°17'5 9.9
2018-Feb-16 04:01N 47°08' W 002°20'5 9.1
2018-Feb-16 03:31N 47°07' W 002°27'1 1.2
2018-Feb-16 02:58N 47°06' W 002°26'0 0.0
2018-Feb-16 02:28N 47°06' W 002°26'0 0.0
2018-Feb-16 01:58N 47°06' W 002°26'0 0.0
2018-Feb-16 01:28N 47°06' W 002°26'0 0.0
2018-Feb-16 00:58N 47°06' W 002°26'0 0.0
2018-Feb-16 00:28N 47°06' W 002°26'0 0.0
2018-Feb-15 23:58N 47°06' W 002°26'0 0.0
2018-Feb-15 23:28N 47°06' W 002°26'0 0.1
2018-Feb-15 22:49N 47°06' W 002°26'0 0.2
2018-Feb-15 22:25N 47°06' W 002°26'0 0.1
2018-Feb-15 21:49N 47°06' W 002°26'0 0.1
2018-Feb-15 21:25N 47°06' W 002°26'0 0.0
2018-Feb-15 20:52N 47°06' W 002°26'0 0.1
2018-Feb-15 20:28N 47°06' W 002°26'0 0.1
2018-Feb-15 19:56N 47°06' W 002°26'1 2.8
2018-Feb-15 19:30N 47°05' W 002°27'4 8.8
2018-Feb-15 19:00N 47°02' W 002°32'5 9.4
2018-Feb-15 18:29N 46°60' W 002°38'7 9.3
2018-Feb-15 17:44N 46°54' W 002°45'212 9.8
2018-Feb-14 20:08N 43°53' W 005°23'1 9.5
2018-Feb-14 19:59N 43°52' W 005°24'5 9.7
2018-Feb-14 19:30N 43°48' W 005°28'5 9.7
2018-Feb-14 19:00N 43°44' W 005°31'5 9.6
2018-Feb-14 18:30N 43°40' W 005°34'5 9.2
2018-Feb-14 18:00N 43°36' W 005°37'4 7.9
2018-Feb-14 17:30N 43°34' W 005°42'0 0.2
2018-Feb-14 16:52N 43°34' W 005°42'0 0.0
2018-Feb-14 12:52N 43°34' W 005°42'0 0.0
2018-Feb-14 12:10N 43°34' W 005°42'0 0.0
2018-Feb-14 11:52N 43°34' W 005°42'0 0.0
2018-Feb-14 11:16N 43°34' W 005°42'0 0.0
2018-Feb-14 10:58N 43°34' W 005°42'0 0.0
2018-Feb-14 10:22N 43°34' W 005°42'0 0.0
2018-Feb-14 09:58N 43°34' W 005°42'0 0.0
2018-Feb-14 09:28N 43°34' W 005°42'0 0.0
2018-Feb-14 08:58N 43°34' W 005°42'0 0.0
2018-Feb-14 07:28N 43°34' W 005°42'0 0.0
2018-Feb-14 06:58N 43°34' W 005°42'0 0.0
2018-Feb-14 06:28N 43°34' W 005°42'0 0.0
2018-Feb-14 05:46N 43°34' W 005°42'0 0.0
2018-Feb-14 04:52N 43°34' W 005°42'0 0.0
2018-Feb-14 04:28N 43°34' W 005°42'0 0.0
2018-Feb-14 03:58N 43°34' W 005°42'0 0.0
2018-Feb-14 03:28N 43°34' W 005°42'0 0.0
2018-Feb-14 02:52N 43°34' W 005°42'0 0.0
2018-Feb-14 02:28N 43°34' W 005°42'0 0.0
2018-Feb-14 01:58N 43°34' W 005°42'0 0.0
2018-Feb-14 01:28N 43°34' W 005°42'0 0.0
2018-Feb-14 00:58N 43°34' W 005°42'0 0.0
2018-Feb-13 23:10N 43°34' W 005°42'0 0.0
2018-Feb-13 22:58N 43°34' W 005°42'0 0.0
2018-Feb-13 22:22N 43°34' W 005°42'0 0.0
2018-Feb-13 20:28N 43°34' W 005°42'0 0.0
2018-Feb-13 19:52N 43°34' W 005°42'0 0.0
2018-Feb-13 19:22N 43°34' W 005°42'0 0.0
2018-Feb-13 18:58N 43°34' W 005°42'0 0.0
2018-Feb-13 18:28N 43°34' W 005°42'0 0.0
2018-Feb-13 17:58N 43°34' W 005°42'0 0.0
2018-Feb-13 17:28N 43°34' W 005°42'0 0.0
2018-Feb-13 16:46N 43°34' W 005°42'0 0.0
2018-Feb-13 12:46N 43°34' W 005°42'0 0.0
2018-Feb-13 12:28N 43°34' W 005°42'0 0.3
2018-Feb-13 11:59N 43°34' W 005°42'2 4.1
2018-Feb-13 11:30N 43°35' W 005°40'510.0
2018-Feb-13 11:00N 43°40' W 005°39'5 9.9
2018-Feb-13 10:30N 43°45' W 005°39'5 9.2
2018-Feb-13 10:00N 43°50' W 005°40'5 9.0
2018-Feb-13 09:28N 43°54' W 005°42'2 3.8
2018-Feb-13 08:52N 43°53' W 005°45'2 6.3
2018-Feb-13 08:30N 43°52' W 005°48'5 9.2
2018-Feb-13 07:56N 43°49' W 005°53'4 8.2
2018-Feb-13 07:27N 43°45' W 005°56'4 8.1
2018-Feb-13 07:00N 43°42' W 005°57'4 8.2
2018-Feb-13 06:29N 43°38' W 005°58'  

Dump ship's entire track history